Time;durP1;ratioP1;P1;durP2;ratioP2;P2;SDS_P1;SDS_P2;PMS_P1;PMS_P2;Temp;Humidity;BMP_temperature;BMP_pressure;BME280_temperature;BME280_humidity;BME280_pressure;Samples;Min_cycle;Max_cycle;Signal;HPM_P1;HPM_P2
2024/04/02 00:01:27;;;;;;;0.50;0.50;;;;;;;;;;5015586;28;20182;-76
2024/04/02 00:03:54;;;;;;;0.63;0.40;;;;;;;;;;5015636;28;20252;-75
2024/04/02 00:06:20;;;;;;;0.50;0.50;;;;;;;;;;5015965;28;20201;-75
2024/04/02 00:08:46;;;;;;;0.53;0.53;;;;;;;;;;5015835;28;20183;-75
2024/04/02 00:11:12;;;;;;;0.87;0.50;;;;;;;;;;5016061;28;20174;-75
2024/04/02 00:13:39;;;;;;;1.13;0.57;;;;;;;;;;5015312;28;20293;-75
2024/04/02 00:16:06;;;;;;;0.40;0.40;;;;;;;;;;5015669;28;20185;-76
2024/04/02 00:18:32;;;;;;;0.60;0.60;;;;;;;;;;5015521;28;20676;-76
2024/04/02 00:21:01;;;;;;;0.40;0.40;;;;;;;;;;5015405;28;20178;-76
2024/04/02 00:23:27;;;;;;;0.40;0.40;;;;;;;;;;5015485;28;20194;-74
2024/04/02 00:26:00;;;;;;;1.17;0.50;;;;;;;;;;5015616;28;20182;-76
2024/04/02 00:28:26;;;;;;;0.80;0.50;;;;;;;;;;5015143;28;20209;-74
2024/04/02 00:30:52;;;;;;;0.97;0.50;;;;;;;;;;5015057;28;20586;-75
2024/04/02 00:33:18;;;;;;;0.50;0.50;;;;;;;;;;5015116;28;20711;-75
2024/04/02 00:35:44;;;;;;;0.30;0.30;;;;;;;;;;5015147;28;20178;-75
2024/04/02 00:38:10;;;;;;;0.43;0.43;;;;;;;;;;5014518;28;20223;-75
2024/04/02 00:40:42;;;;;;;0.40;0.40;;;;;;;;;;5014524;28;20197;-74
2024/04/02 00:43:08;;;;;;;1.17;0.50;;;;;;;;;;5014967;28;20201;-76
2024/04/02 00:45:34;;;;;;;0.50;0.50;;;;;;;;;;5014851;28;20178;-75
2024/04/02 00:48:01;;;;;;;0.47;0.47;;;;;;;;;;5014991;28;20276;-76
2024/04/02 00:50:27;;;;;;;0.40;0.40;;;;;;;;;;5014628;28;20661;-76
2024/04/02 00:52:53;;;;;;;0.97;0.60;;;;;;;;;;5014715;28;20192;-76
2024/04/02 00:55:19;;;;;;;1.13;0.53;;;;;;;;;;5014980;28;20190;-75
2024/04/02 00:57:46;;;;;;;0.77;0.40;;;;;;;;;;5014866;28;20218;-75
2024/04/02 01:00:12;;;;;;;0.77;0.50;;;;;;;;;;5016061;28;20210;-75
2024/04/02 01:02:38;;;;;;;0.70;0.43;;;;;;;;;;5013914;28;20193;-76
2024/04/02 01:05:05;;;;;;;1.27;0.57;;;;;;;;;;5014549;28;20599;-75
2024/04/02 01:07:31;;;;;;;0.40;0.40;;;;;;;;;;5014528;28;20273;-75
2024/04/02 01:09:57;;;;;;;0.53;0.53;;;;;;;;;;5014429;28;20182;-75
2024/04/02 01:12:23;;;;;;;0.50;0.50;;;;;;;;;;5014307;28;20317;-75
2024/04/02 01:14:49;;;;;;;0.63;0.53;;;;;;;;;;5014361;28;20210;-75
2024/04/02 01:17:17;;;;;;;0.90;0.57;;;;;;;;;;5014502;28;20212;-76
2024/04/02 01:19:43;;;;;;;0.30;0.30;;;;;;;;;;5014053;28;20317;-75
2024/04/02 01:22:09;;;;;;;0.40;0.40;;;;;;;;;;5014291;28;20209;-75
2024/04/02 01:24:35;;;;;;;0.73;0.70;;;;;;;;;;5014138;28;20197;-75
2024/04/02 01:27:02;;;;;;;0.93;0.60;;;;;;;;;;5014017;28;20589;-76
2024/04/02 01:29:28;;;;;;;1.10;0.60;;;;;;;;;;5012982;28;20186;-75
2024/04/02 01:31:54;;;;;;;0.50;0.50;;;;;;;;;;5014108;28;20189;-76
2024/04/02 01:34:20;;;;;;;0.40;0.40;;;;;;;;;;5012838;28;20202;-75
2024/04/02 01:36:46;;;;;;;0.60;0.60;;;;;;;;;;5014128;28;20572;-75
2024/04/02 01:39:12;;;;;;;1.90;0.50;;;;;;;;;;5014369;28;20188;-75
2024/04/02 01:41:38;;;;;;;1.27;0.50;;;;;;;;;;5014043;28;20190;-75
2024/04/02 01:44:05;;;;;;;0.50;0.50;;;;;;;;;;5013844;28;20550;-75
2024/04/02 01:46:31;;;;;;;1.47;0.80;;;;;;;;;;5013873;28;20260;-76
2024/04/02 01:48:57;;;;;;;0.83;0.70;;;;;;;;;;5014248;28;20193;-75
2024/04/02 01:51:25;;;;;;;0.60;0.60;;;;;;;;;;5013695;28;20573;-75
2024/04/02 01:53:51;;;;;;;1.43;0.50;;;;;;;;;;5013682;28;20221;-75
2024/04/02 01:56:17;;;;;;;0.60;0.60;;;;;;;;;;5013930;28;20204;-75
2024/04/02 01:58:43;;;;;;;0.67;0.40;;;;;;;;;;5012131;28;20221;-77
2024/04/02 02:01:09;;;;;;;0.40;0.40;;;;;;;;;;5013737;28;20575;-76
2024/04/02 02:03:36;;;;;;;0.40;0.40;;;;;;;;;;5013435;28;20228;-75
2024/04/02 02:06:02;;;;;;;0.50;0.50;;;;;;;;;;5013737;28;20625;-76
2024/04/02 02:08:28;;;;;;;0.57;0.57;;;;;;;;;;5013397;28;20684;-76
2024/04/02 02:11:01;;;;;;;0.40;0.40;;;;;;;;;;5013493;28;20181;-76
2024/04/02 02:13:27;;;;;;;0.53;0.50;;;;;;;;;;5013339;28;20200;-75
2024/04/02 02:16:03;;;;;;;0.50;0.50;;;;;;;;;;5013469;28;20281;-76
2024/04/02 02:18:29;;;;;;;1.03;0.50;;;;;;;;;;5014053;28;20228;-76
2024/04/02 02:20:56;;;;;;;1.83;0.57;;;;;;;;;;5013345;28;20188;-76
2024/04/02 02:23:22;;;;;;;0.50;0.50;;;;;;;;;;5013325;28;20285;-76
2024/04/02 02:25:48;;;;;;;0.50;0.50;;;;;;;;;;5013560;28;20178;-75
2024/04/02 02:28:15;;;;;;;0.67;0.50;;;;;;;;;;5013598;28;20645;-75
2024/04/02 02:30:41;;;;;;;0.50;0.50;;;;;;;;;;5013147;28;20213;-76
2024/04/02 02:33:07;;;;;;;0.50;0.50;;;;;;;;;;5013514;28;20232;-77
2024/04/02 02:35:33;;;;;;;0.70;0.50;;;;;;;;;;5013335;28;20273;-75
2024/04/02 02:37:59;;;;;;;0.70;0.40;;;;;;;;;;5013313;28;20216;-75
2024/04/02 02:40:25;;;;;;;0.60;0.60;;;;;;;;;;5013874;28;20197;-75
2024/04/02 02:42:51;;;;;;;0.40;0.40;;;;;;;;;;5013358;28;20178;-74
2024/04/02 02:45:17;;;;;;;0.40;0.40;;;;;;;;;;5013150;28;20190;-74
2024/04/02 02:47:43;;;;;;;0.60;0.60;;;;;;;;;;5013276;28;20186;-76
2024/04/02 02:50:09;;;;;;;0.70;0.60;;;;;;;;;;5013365;28;20609;-74
2024/04/02 02:52:36;;;;;;;0.70;0.50;;;;;;;;;;5013234;28;20239;-74
2024/04/02 02:55:02;;;;;;;0.40;0.40;;;;;;;;;;5013170;28;20209;-75
2024/04/02 02:57:28;;;;;;;1.23;0.60;;;;;;;;;;5013118;28;20212;-75
2024/04/02 02:59:54;;;;;;;0.40;0.40;;;;;;;;;;5012877;28;20232;-75
2024/04/02 03:02:20;;;;;;;0.60;0.60;;;;;;;;;;5013966;28;20208;-75
2024/04/02 03:04:50;;;;;;;0.70;0.60;;;;;;;;;;5016723;28;20265;-76
2024/04/02 03:07:16;;;;;;;0.50;0.50;;;;;;;;;;5016850;28;20671;-76
2024/04/02 03:09:42;;;;;;;0.50;0.50;;;;;;;;;;5016880;28;20604;-75
2024/04/02 03:12:08;;;;;;;0.40;0.40;;;;;;;;;;5016904;28;20212;-75
2024/04/02 03:14:35;;;;;;;1.93;0.80;;;;;;;;;;5016849;28;20301;-76
2024/04/02 03:17:01;;;;;;;0.63;0.40;;;;;;;;;;5015782;28;20242;-78
2024/04/02 03:19:30;;;;;;;0.40;0.40;;;;;;;;;;5019251;28;20178;-78
2024/04/02 03:21:56;;;;;;;0.50;0.50;;;;;;;;;;5019064;28;20197;-78
2024/04/02 03:24:22;;;;;;;0.57;0.40;;;;;;;;;;5019013;28;20676;-78
2024/04/02 03:26:48;;;;;;;0.40;0.40;;;;;;;;;;5019197;28;20197;-78
2024/04/02 03:29:14;;;;;;;0.43;0.40;;;;;;;;;;5001743;28;20182;-78
2024/04/02 03:31:40;;;;;;;0.83;0.70;;;;;;;;;;5019483;28;20186;-79
2024/04/02 03:34:06;;;;;;;0.30;0.30;;;;;;;;;;5019086;28;20747;-79
2024/04/02 03:36:32;;;;;;;0.60;0.60;;;;;;;;;;5018595;28;20185;-78
2024/04/02 03:38:58;;;;;;;0.43;0.43;;;;;;;;;;5017471;28;20255;-78
2024/04/02 03:41:25;;;;;;;0.60;0.50;;;;;;;;;;5016609;28;20189;-78
2024/04/02 03:43:51;;;;;;;0.83;0.60;;;;;;;;;;5017866;28;20212;-78
2024/04/02 03:46:17;;;;;;;0.53;0.47;;;;;;;;;;5019164;28;20614;-78
2024/04/02 03:48:43;;;;;;;0.50;0.50;;;;;;;;;;5018316;28;20182;-78
2024/04/02 03:51:09;;;;;;;0.60;0.60;;;;;;;;;;5018992;28;20188;-78
2024/04/02 03:53:35;;;;;;;0.50;0.50;;;;;;;;;;5019590;28;20212;-78
2024/04/02 03:56:02;;;;;;;1.83;0.70;;;;;;;;;;5020158;28;20185;-78
2024/04/02 03:58:29;;;;;;;0.53;0.53;;;;;;;;;;5018877;28;20205;-79
2024/04/02 04:00:56;;;;;;;0.60;0.60;;;;;;;;;;5016889;28;20193;-78
2024/04/02 04:03:22;;;;;;;0.60;0.50;;;;;;;;;;5018063;28;20252;-78
2024/04/02 04:05:56;;;;;;;0.40;0.40;;;;;;;;;;5018803;28;20551;-79
2024/04/02 04:08:22;;;;;;;0.53;0.53;;;;;;;;;;5018629;28;20726;-79
2024/04/02 04:10:48;;;;;;;0.40;0.40;;;;;;;;;;5018697;28;20193;-79
2024/04/02 04:13:14;;;;;;;0.53;0.53;;;;;;;;;;5018374;28;20335;-79
2024/04/02 04:15:40;;;;;;;4.50;0.63;;;;;;;;;;5017973;28;20200;-79
2024/04/02 04:18:06;;;;;;;1.17;0.60;;;;;;;;;;5018697;28;20216;-78
2024/04/02 04:20:34;;;;;;;0.80;0.60;;;;;;;;;;5018398;28;20177;-78
2024/04/02 04:23:00;;;;;;;1.60;0.63;;;;;;;;;;5018368;28;20193;-79
2024/04/02 04:25:26;;;;;;;0.50;0.50;;;;;;;;;;5018274;28;20181;-79
2024/04/02 04:27:52;;;;;;;2.00;0.50;;;;;;;;;;5017174;28;20287;-78
2024/04/02 04:30:18;;;;;;;0.47;0.47;;;;;;;;;;5018653;28;20216;-79
2024/04/02 04:32:44;;;;;;;0.70;0.60;;;;;;;;;;5019474;28;20193;-79
2024/04/02 04:35:10;;;;;;;0.77;0.63;;;;;;;;;;5018996;28;20233;-78
2024/04/02 04:37:36;;;;;;;0.57;0.40;;;;;;;;;;5016844;28;20216;-80
2024/04/02 04:40:02;;;;;;;0.73;0.73;;;;;;;;;;5019178;28;20291;-79
2024/04/02 04:42:32;;;;;;;0.90;0.70;;;;;;;;;;5019291;28;20185;-80
2024/04/02 04:44:58;;;;;;;0.77;0.70;;;;;;;;;;5020245;28;20213;-80
2024/04/02 04:47:24;;;;;;;1.30;0.60;;;;;;;;;;5019162;28;20195;-79
2024/04/02 04:49:50;;;;;;;0.60;0.57;;;;;;;;;;5019838;28;20250;-80
2024/04/02 04:52:16;;;;;;;0.83;0.50;;;;;;;;;;5019802;28;20194;-79
2024/04/02 04:54:42;;;;;;;1.03;0.53;;;;;;;;;;5018456;28;20215;-80
2024/04/02 04:57:08;;;;;;;0.40;0.40;;;;;;;;;;5019283;28;20227;-80
2024/04/02 04:59:34;;;;;;;1.03;0.60;;;;;;;;;;5029021;28;20185;-79
2024/04/02 05:02:00;;;;;;;0.70;0.57;;;;;;;;;;5034824;28;20213;-79
2024/04/02 05:04:26;;;;;;;3.80;0.73;;;;;;;;;;5034473;28;20272;-79
2024/04/02 05:06:53;;;;;;;0.53;0.53;;;;;;;;;;5035626;28;20782;-79
2024/04/02 05:09:20;;;;;;;1.30;0.70;;;;;;;;;;5035994;28;20204;-79
2024/04/02 05:11:46;;;;;;;2.33;0.50;;;;;;;;;;5033998;28;20181;-80
2024/04/02 05:14:12;;;;;;;1.03;0.53;;;;;;;;;;5024955;28;20286;-79
2024/04/02 05:16:38;;;;;;;0.77;0.53;;;;;;;;;;5019416;28;20715;-79
2024/04/02 05:19:04;;;;;;;0.47;0.43;;;;;;;;;;5019355;28;20185;-79
2024/04/02 05:21:30;;;;;;;0.40;0.40;;;;;;;;;;5024934;28;20193;-79
2024/04/02 05:23:56;;;;;;;0.40;0.40;;;;;;;;;;5035150;28;20279;-79
2024/04/02 05:26:23;;;;;;;0.30;0.30;;;;;;;;;;5019952;28;20224;-79
2024/04/02 05:28:49;;;;;;;0.50;0.50;;;;;;;;;;5019282;28;20181;-80
2024/04/02 05:31:15;;;;;;;0.33;0.33;;;;;;;;;;5019337;28;20578;-80
2024/04/02 05:33:41;;;;;;;0.60;0.60;;;;;;;;;;5019342;28;20212;-80
2024/04/02 05:36:08;;;;;;;1.17;0.60;;;;;;;;;;5019565;28;20189;-80
2024/04/02 05:38:34;;;;;;;0.63;0.50;;;;;;;;;;5019942;28;20319;-78
2024/04/02 05:41:00;;;;;;;0.40;0.40;;;;;;;;;;5018826;28;20538;-80
2024/04/02 05:43:27;;;;;;;0.50;0.40;;;;;;;;;;5016035;28;20211;-79
2024/04/02 05:45:53;;;;;;;0.60;0.40;;;;;;;;;;5018506;28;20189;-80
2024/04/02 05:48:19;;;;;;;0.60;0.50;;;;;;;;;;5020023;28;20224;-80
2024/04/02 05:50:55;;;;;;;0.73;0.40;;;;;;;;;;5019417;28;20185;-80
2024/04/02 05:53:21;;;;;;;2.17;0.57;;;;;;;;;;5021067;28;20620;-80
2024/04/02 05:55:47;;;;;;;0.40;0.40;;;;;;;;;;5019309;28;20186;-79
2024/04/02 05:58:13;;;;;;;0.43;0.43;;;;;;;;;;5018296;28;20582;-80
2024/04/02 06:00:39;;;;;;;0.30;0.30;;;;;;;;;;5018834;28;20564;-80
2024/04/02 06:03:05;;;;;;;1.23;0.40;;;;;;;;;;5016982;28;20681;-77
2024/04/02 06:05:32;;;;;;;0.40;0.40;;;;;;;;;;5013977;28;20178;-77
2024/04/02 06:07:58;;;;;;;2.13;0.50;;;;;;;;;;5012286;28;20193;-77
2024/04/02 06:10:26;;;;;;;0.40;0.40;;;;;;;;;;5014165;28;20277;-76
2024/04/02 06:12:52;;;;;;;1.40;0.40;;;;;;;;;;5013669;28;20674;-77
2024/04/02 06:15:19;;;;;;;1.30;0.40;;;;;;;;;;5013966;28;20316;-77
2024/04/02 06:17:45;;;;;;;1.13;0.60;;;;;;;;;;5013438;28;20570;-77
2024/04/02 06:20:11;;;;;;;0.67;0.40;;;;;;;;;;5012335;28;20258;-76
2024/04/02 06:22:37;;;;;;;2.00;0.50;;;;;;;;;;5013632;28;20188;-77
2024/04/02 06:25:04;;;;;;;0.47;0.47;;;;;;;;;;5013340;28;20210;-77
2024/04/02 06:27:30;;;;;;;0.67;0.40;;;;;;;;;;5013365;28;20195;-77
2024/04/02 06:29:56;;;;;;;0.50;0.50;;;;;;;;;;5014328;28;20324;-77
2024/04/02 06:32:22;;;;;;;0.90;0.40;;;;;;;;;;5013384;28;20651;-77
2024/04/02 06:34:48;;;;;;;0.40;0.30;;;;;;;;;;5013235;28;20260;-77
2024/04/02 06:37:14;;;;;;;0.20;0.20;;;;;;;;;;5015684;28;20218;-78
2024/04/02 06:39:40;;;;;;;0.47;0.43;;;;;;;;;;5016031;28;20624;-77
2024/04/02 06:42:06;;;;;;;0.30;0.30;;;;;;;;;;5017558;28;20601;-77
2024/04/02 06:44:32;;;;;;;0.40;0.40;;;;;;;;;;5017223;28;20261;-77
2024/04/02 06:46:58;;;;;;;0.20;0.20;;;;;;;;;;5017265;28;20191;-77
2024/04/02 06:49:25;;;;;;;0.50;0.33;;;;;;;;;;5017474;28;20550;-76
2024/04/02 06:51:52;;;;;;;0.40;0.40;;;;;;;;;;5016614;28;20196;-77
2024/04/02 06:54:19;;;;;;;0.50;0.47;;;;;;;;;;5017252;28;20212;-77
2024/04/02 06:56:45;;;;;;;0.30;0.30;;;;;;;;;;5017594;28;20198;-76
2024/04/02 06:59:11;;;;;;;0.50;0.50;;;;;;;;;;5017621;28;20184;-77
2024/04/02 07:01:36;;;;;;;0.33;0.30;;;;;;;;;;5017840;28;20188;-77
2024/04/02 07:04:03;;;;;;;0.40;0.40;;;;;;;;;;5016820;28;20209;-76
2024/04/02 07:06:29;;;;;;;0.43;0.43;;;;;;;;;;5016878;28;20565;-78
2024/04/02 07:08:58;;;;;;;0.47;0.40;;;;;;;;;;5017086;28;20205;-77
2024/04/02 07:11:25;;;;;;;0.30;0.30;;;;;;;;;;5016754;28;20205;-76
2024/04/02 07:13:52;;;;;;;0.63;0.40;;;;;;;;;;5016779;28;20216;-77
2024/04/02 07:16:19;;;;;;;0.37;0.37;;;;;;;;;;5017007;28;20189;-76
2024/04/02 07:18:45;;;;;;;0.30;0.30;;;;;;;;;;5017005;28;20210;-77
2024/04/02 07:21:11;;;;;;;0.47;0.40;;;;;;;;;;5022338;28;20185;-76
2024/04/02 07:23:38;;;;;;;0.27;0.27;;;;;;;;;;5017568;28;20197;-77
2024/04/02 07:26:04;;;;;;;0.57;0.43;;;;;;;;;;5017385;28;20597;-77
2024/04/02 07:28:32;;;;;;;0.47;0.47;;;;;;;;;;5019123;28;20192;-77
2024/04/02 07:30:58;;;;;;;0.60;0.50;;;;;;;;;;5023080;28;20189;-76
2024/04/02 07:33:24;;;;;;;0.30;0.30;;;;;;;;;;5015961;28;20218;-77
2024/04/02 07:35:54;;;;;;;1.33;0.60;;;;;;;;;;5017550;28;20622;-78
2024/04/02 07:38:20;;;;;;;0.40;0.40;;;;;;;;;;5016836;28;20232;-77
2024/04/02 07:40:46;;;;;;;0.70;0.60;;;;;;;;;;5017715;28;20190;-77
2024/04/02 07:43:12;;;;;;;0.80;0.50;;;;;;;;;;5015692;28;20699;-77
2024/04/02 07:45:39;;;;;;;2.53;0.50;;;;;;;;;;5015432;28;20181;-76
2024/04/02 07:48:06;;;;;;;1.20;0.73;;;;;;;;;;5015323;28;20214;-76
2024/04/02 07:50:33;;;;;;;0.50;0.50;;;;;;;;;;5015978;28;20248;-76
2024/04/02 07:52:59;;;;;;;2.37;0.80;;;;;;;;;;5016139;28;20573;-77
2024/04/02 07:55:26;;;;;;;1.60;0.70;;;;;;;;;;5015845;28;20200;-76
2024/04/02 07:57:52;;;;;;;1.37;0.50;;;;;;;;;;5015723;28;20275;-76
2024/04/02 08:00:18;;;;;;;1.20;0.80;;;;;;;;;;5016009;28;20187;-77
2024/04/02 08:02:48;;;;;;;2.33;1.00;;;;;;;;;;5080186;22;20280;-76
2024/04/02 08:05:14;;;;;;;2.63;0.80;;;;;;;;;;5055824;28;20300;-76
2024/04/02 08:07:41;;;;;;;1.93;0.80;;;;;;;;;;5055701;28;20191;-76
2024/04/02 08:10:07;;;;;;;1.60;0.80;;;;;;;;;;5055661;28;20173;-76
2024/04/02 08:12:33;;;;;;;0.63;0.53;;;;;;;;;;5055626;28;20182;-76
2024/04/02 08:15:11;;;;;;;2.63;0.60;;;;;;;;;;5075729;23;20239;-76
2024/04/02 08:17:37;;;;;;;1.40;0.90;;;;;;;;;;5075489;28;20214;-76
2024/04/02 08:20:03;;;;;;;3.80;0.90;;;;;;;;;;5075551;28;20208;-76
2024/04/02 08:22:39;;;;;;;1.60;0.70;;;;;;;;;;5075377;28;20176;-76
2024/04/02 08:25:07;;;;;;;2.17;0.70;;;;;;;;;;5078048;28;20211;-78
2024/04/02 08:27:33;;;;;;;1.37;0.70;;;;;;;;;;5059337;28;20209;-77
2024/04/02 08:29:59;;;;;;;2.33;0.70;;;;;;;;;;5077517;28;20258;-78
2024/04/02 08:32:25;;;;;;;2.23;0.73;;;;;;;;;;5076796;28;20185;-76
2024/04/02 08:34:51;;;;;;;4.67;0.90;;;;;;;;;;5075146;28;20245;-75
2024/04/02 08:37:17;;;;;;;2.53;0.60;;;;;;;;;;5074802;28;20208;-76
2024/04/02 08:39:43;;;;;;;1.30;0.60;;;;;;;;;;5074625;28;20255;-76
2024/04/02 08:42:09;;;;;;;3.47;0.90;;;;;;;;;;5074771;28;20209;-76
2024/04/02 08:44:36;;;;;;;0.93;0.60;;;;;;;;;;5075069;28;20674;-74
2024/04/02 08:47:02;;;;;;;2.60;0.80;;;;;;;;;;5074564;28;20210;-74
2024/04/02 08:49:28;;;;;;;1.13;0.60;;;;;;;;;;5074484;28;20188;-77
2024/04/02 08:51:55;;;;;;;1.93;0.63;;;;;;;;;;5074729;28;20281;-77
2024/04/02 08:54:21;;;;;;;0.67;0.57;;;;;;;;;;5074495;28;20204;-77
2024/04/02 08:56:48;;;;;;;1.23;0.40;;;;;;;;;;5074531;28;20180;-75
2024/04/02 08:59:14;;;;;;;0.50;0.50;;;;;;;;;;5074096;28;20180;-74
2024/04/02 09:01:41;;;;;;;1.03;0.70;;;;;;;;;;5073761;28;20181;-76
2024/04/02 09:04:09;;;;;;;1.20;0.60;;;;;;;;;;5074276;28;20646;-77
2024/04/02 09:06:36;;;;;;;0.53;0.50;;;;;;;;;;5074193;28;20212;-77
2024/04/02 09:09:05;;;;;;;1.83;0.63;;;;;;;;;;5074295;28;20241;-77
2024/04/02 09:11:31;;;;;;;1.17;0.60;;;;;;;;;;5074201;28;20190;-77
2024/04/02 09:14:00;;;;;;;1.17;0.60;;;;;;;;;;5074246;28;20632;-77
2024/04/02 09:16:30;;;;;;;0.60;0.60;;;;;;;;;;5073850;28;20201;-77
2024/04/02 09:19:08;;;;;;;2.37;0.70;;;;;;;;;;5074370;28;20223;-77
2024/04/02 09:21:34;;;;;;;0.60;0.50;;;;;;;;;;5080663;22;20232;-78
2024/04/02 09:24:00;;;;;;;1.07;0.70;;;;;;;;;;5049160;28;20215;-77
2024/04/02 09:26:26;;;;;;;1.53;0.80;;;;;;;;;;5034006;28;20169;-77
2024/04/02 09:28:52;;;;;;;1.43;0.60;;;;;;;;;;5034300;28;20189;-77
2024/04/02 09:31:18;;;;;;;0.70;0.50;;;;;;;;;;5034120;28;20643;-77
2024/04/02 09:33:49;;;;;;;1.55;0.65;;;;;;;;;;5059671;22;20243;-69
2024/04/02 09:38:58;;;;;;;1.85;0.73;;;;;;;;;;5031091;28;20225;-78
2024/04/02 09:41:36;;;;;;;0.95;0.80;;;;;;;;;;5033894;28;20185;-78
2024/04/02 09:44:02;;;;;;;1.15;0.63;;;;;;;;;;5036754;28;20197;-78
2024/04/02 09:49:37;;;;;;;1.58;0.73;;;;;;;;;;5027619;28;20192;-78
2024/04/02 09:52:04;;;;;;;2.03;0.75;;;;;;;;;;5018392;28;20238;-76
2024/04/02 09:54:31;;;;;;;0.70;0.70;;;;;;;;;;5033413;28;20201;-76
2024/04/02 09:56:58;;;;;;;1.48;0.80;;;;;;;;;;5033470;28;20189;-76
2024/04/02 09:59:37;;;;;;;0.80;0.60;;;;;;;;;;5033796;28;20287;-76
2024/04/02 10:02:04;;;;;;;1.58;0.70;;;;;;;;;;5033518;28;20195;-76
2024/04/02 10:04:30;;;;;;;2.45;0.70;;;;;;;;;;5033534;28;20571;-77
2024/04/02 10:07:01;;;;;;;0.55;0.50;;;;;;;;;;5035280;28;20631;-77
2024/04/02 10:09:27;;;;;;;0.90;0.70;;;;;;;;;;5034142;28;20177;-76
2024/04/02 10:11:53;;;;;;;2.00;0.77;;;;;;;;;;5032872;28;20204;-77
2024/04/02 10:14:26;;;;;;;2.40;0.90;;;;;;;;;;5033035;28;20204;-77
2024/04/02 10:17:01;;;;;;;2.40;0.50;;;;;;;;;;5036418;28;20197;-78
2024/04/02 10:19:29;;;;;;;1.95;0.77;;;;;;;;;;5033380;28;20185;-76
2024/04/02 10:21:56;;;;;;;1.02;0.60;;;;;;;;;;5033307;28;20177;-76
2024/04/02 10:24:24;;;;;;;2.83;0.98;;;;;;;;;;5032908;28;20741;-76
2024/04/02 10:26:50;;;;;;;2.10;0.73;;;;;;;;;;5033111;28;20220;-75
2024/04/02 10:29:27;;;;;;;0.80;0.57;;;;;;;;;;5033206;28;20173;-76
2024/04/02 10:31:53;;;;;;;4.47;0.77;;;;;;;;;;5033072;28;20177;-76
2024/04/02 10:34:20;;;;;;;0.80;0.57;;;;;;;;;;5033151;28;20539;-78
2024/04/02 10:36:46;;;;;;;0.70;0.70;;;;;;;;;;5033387;28;20181;-77
2024/04/02 10:39:12;;;;;;;1.98;0.90;;;;;;;;;;5033589;28;20181;-77
2024/04/02 10:41:38;;;;;;;2.67;0.80;;;;;;;;;;5032735;28;20717;-77
2024/04/02 10:44:05;;;;;;;1.10;0.80;;;;;;;;;;5033084;28;20189;-77
2024/04/02 10:46:31;;;;;;;0.95;0.70;;;;;;;;;;5033265;28;20662;-77
2024/04/02 10:48:59;;;;;;;1.33;0.73;;;;;;;;;;5033501;28;20275;-76
2024/04/02 10:51:26;;;;;;;1.35;0.68;;;;;;;;;;5032900;28;20169;-76
2024/04/02 10:53:52;;;;;;;1.63;0.65;;;;;;;;;;5032774;28;20197;-76
2024/04/02 10:56:19;;;;;;;1.70;0.68;;;;;;;;;;5033159;28;20201;-76
2024/04/02 10:58:45;;;;;;;2.30;0.68;;;;;;;;;;5033005;28;20184;-76
2024/04/02 11:01:13;;;;;;;3.75;0.70;;;;;;;;;;5032787;28;20185;-77
2024/04/02 11:03:39;;;;;;;1.23;0.60;;;;;;;;;;5032569;28;20247;-75
2024/04/02 11:06:05;;;;;;;1.13;0.70;;;;;;;;;;5032589;28;20185;-75
2024/04/02 11:08:37;;;;;;;1.17;0.70;;;;;;;;;;5032721;28;20216;-76
2024/04/02 11:11:03;;;;;;;1.02;0.70;;;;;;;;;;5032839;28;20192;-77
2024/04/02 11:13:29;;;;;;;1.48;0.70;;;;;;;;;;5015316;28;20275;-76
2024/04/02 11:15:55;;;;;;;1.65;0.63;;;;;;;;;;5032606;28;20647;-75
2024/04/02 11:18:46;;;;;;;1.13;0.80;;;;;;;;;;5032882;28;20272;-77
2024/04/02 11:21:20;;;;;;;1.02;0.75;;;;;;;;;;5032646;28;20181;-75
2024/04/02 11:26:31;;;;;;;1.25;0.70;;;;;;;;;;5037834;28;20188;-77
2024/04/02 11:29:09;;;;;;;1.15;0.80;;;;;;;;;;5040061;28;20568;-78
2024/04/02 11:31:35;;;;;;;1.63;0.60;;;;;;;;;;5036742;28;20239;-77
2024/04/02 11:34:02;;;;;;;1.83;0.50;;;;;;;;;;5036264;28;20193;-75
2024/04/02 11:36:29;;;;;;;0.68;0.60;;;;;;;;;;5036286;28;20173;-75
2024/04/02 11:38:54;;;;;;;1.67;0.60;;;;;;;;;;5035870;28;20197;-75
2024/04/02 11:41:20;;;;;;;1.85;0.60;;;;;;;;;;5036080;28;20256;-77
2024/04/02 11:43:47;;;;;;;1.08;0.60;;;;;;;;;;5044612;22;20661;-70
2024/04/02 11:46:13;;;;;;;1.30;0.68;;;;;;;;;;5005529;23;20238;-79
2024/04/02 11:48:40;;;;;;;0.85;0.55;;;;;;;;;;4977242;28;20214;-79
2024/04/02 11:51:07;;;;;;;0.50;0.50;;;;;;;;;;4975708;28;20325;-77
2024/04/02 11:53:33;;;;;;;3.05;0.50;;;;;;;;;;4977420;28;20199;-78
2024/04/02 11:55:59;;;;;;;0.93;0.50;;;;;;;;;;4977086;28;20192;-78
2024/04/02 12:01:10;;;;;;;1.85;0.50;;;;;;;;;;4979028;28;20205;-77
2024/04/02 12:03:36;;;;;;;1.45;0.75;;;;;;;;;;4976911;28;20226;-77
2024/04/02 12:06:02;;;;;;;0.60;0.45;;;;;;;;;;4977306;28;20187;-77
2024/04/02 12:08:28;;;;;;;2.83;0.52;;;;;;;;;;4976776;28;20252;-76
2024/04/02 12:10:55;;;;;;;1.77;0.60;;;;;;;;;;4977316;28;20175;-77
2024/04/02 12:15:49;;;;;;;1.13;0.70;;;;;;;;;;5076873;28;20611;-75
2024/04/02 12:18:15;;;;;;;1.55;0.60;;;;;;;;;;5075378;28;20185;-77
2024/04/02 12:20:43;;;;;;;0.73;0.40;;;;;;;;;;5075602;28;20229;-77
2024/04/02 12:23:09;;;;;;;0.90;0.55;;;;;;;;;;5076101;28;20299;-78
2024/04/02 12:25:47;;;;;;;1.25;0.60;;;;;;;;;;5082618;28;20194;-75
2024/04/02 12:28:38;;;;;;;1.20;0.70;;;;;;;;;;5075081;28;20214;-78
2024/04/02 12:31:04;;;;;;;0.85;0.52;;;;;;;;;;5074881;28;20184;-77
2024/04/02 12:33:30;;;;;;;1.35;0.65;;;;;;;;;;5075250;28;20325;-77
2024/04/02 12:35:56;;;;;;;0.60;0.60;;;;;;;;;;5074726;28;20172;-77
2024/04/02 12:38:22;;;;;;;0.55;0.55;;;;;;;;;;5075176;28;20178;-77
2024/04/02 12:40:48;;;;;;;1.75;0.60;;;;;;;;;;5074987;28;20180;-78
2024/04/02 12:43:36;;;;;;;0.45;0.38;;;;;;;;;;5074947;28;20211;-77
2024/04/02 12:46:02;;;;;;;1.77;0.80;;;;;;;;;;5077911;28;20180;-81
2024/04/02 12:48:28;;;;;;;0.80;0.50;;;;;;;;;;5080675;28;20271;-78
2024/04/02 12:50:55;;;;;;;0.50;0.47;;;;;;;;;;5074550;28;20217;-77
2024/04/02 12:53:21;;;;;;;1.45;0.55;;;;;;;;;;5078080;28;20192;-79
2024/04/02 12:55:51;;;;;;;0.90;0.70;;;;;;;;;;5082740;28;20258;-79
2024/04/02 12:58:17;;;;;;;1.30;0.50;;;;;;;;;;5081923;28;20176;-78
2024/04/02 13:00:43;;;;;;;0.75;0.57;;;;;;;;;;5074329;28;20203;-77
2024/04/02 13:03:09;;;;;;;0.50;0.50;;;;;;;;;;5074380;28;20195;-76
2024/04/02 13:05:36;;;;;;;2.65;0.77;;;;;;;;;;5074420;28;20184;-77
2024/04/02 13:08:03;;;;;;;1.65;0.50;;;;;;;;;;5076839;28;20290;-79
2024/04/02 13:10:29;;;;;;;0.98;0.40;;;;;;;;;;5059745;28;20172;-77
2024/04/02 13:12:55;;;;;;;0.47;0.47;;;;;;;;;;5075666;28;20176;-78
2024/04/02 13:15:21;;;;;;;0.70;0.47;;;;;;;;;;5060302;28;20221;-78
2024/04/02 13:17:47;;;;;;;0.98;0.85;;;;;;;;;;5075261;28;20681;-80
2024/04/02 13:20:15;;;;;;;0.82;0.80;;;;;;;;;;5075878;28;20184;-75
2024/04/02 13:22:41;;;;;;;0.63;0.50;;;;;;;;;;5078447;28;20180;-76
2024/04/02 13:25:07;;;;;;;0.75;0.52;;;;;;;;;;5073931;28;20674;-77
2024/04/02 13:27:33;;;;;;;0.70;0.50;;;;;;;;;;5077858;28;20211;-80
2024/04/02 13:29:59;;;;;;;0.88;0.50;;;;;;;;;;5080025;28;20189;-79
2024/04/02 13:32:26;;;;;;;0.47;0.43;;;;;;;;;;5079719;28;20184;-79
2024/04/02 13:34:52;;;;;;;0.77;0.60;;;;;;;;;;5081407;28;20188;-78
2024/04/02 13:37:18;;;;;;;0.65;0.40;;;;;;;;;;5079564;28;20507;-80
2024/04/02 13:39:44;;;;;;;0.77;0.50;;;;;;;;;;5078843;28;20189;-80
2024/04/02 13:42:10;;;;;;;1.10;0.70;;;;;;;;;;5076260;28;20395;-79
2024/04/02 13:44:36;;;;;;;0.70;0.50;;;;;;;;;;5078110;28;20460;-78
2024/04/02 13:47:02;;;;;;;1.23;0.63;;;;;;;;;;5076473;28;20394;-78
2024/04/02 13:49:30;;;;;;;1.48;0.70;;;;;;;;;;5076105;28;20263;-78
2024/04/02 13:51:57;;;;;;;1.10;0.50;;;;;;;;;;5077806;28;20174;-78
2024/04/02 13:54:23;;;;;;;0.45;0.45;;;;;;;;;;5077472;28;20196;-80
2024/04/02 13:56:49;;;;;;;0.90;0.50;;;;;;;;;;5074111;28;20664;-78
2024/04/02 13:59:15;;;;;;;0.30;0.30;;;;;;;;;;5076616;28;20262;-79
2024/04/02 14:01:41;;;;;;;2.25;0.63;;;;;;;;;;5077176;28;20264;-79
2024/04/02 14:04:07;;;;;;;1.17;0.52;;;;;;;;;;5081380;22;20601;-70
2024/04/02 14:06:33;;;;;;;0.50;0.50;;;;;;;;;;5073792;28;20606;-70
2024/04/02 14:08:59;;;;;;;0.57;0.50;;;;;;;;;;5073154;28;20219;-69
2024/04/02 14:11:26;;;;;;;0.85;0.45;;;;;;;;;;5055320;28;20644;-69
2024/04/02 14:13:51;;;;;;;0.60;0.50;;;;;;;;;;5073045;28;20196;-70
2024/04/02 14:16:17;;;;;;;0.75;0.50;;;;;;;;;;5072838;28;20178;-69
2024/04/02 14:18:45;;;;;;;1.40;0.60;;;;;;;;;;5072875;28;20713;-70
2024/04/02 14:21:12;;;;;;;0.40;0.40;;;;;;;;;;5073101;28;20548;-69
2024/04/02 14:23:38;;;;;;;2.97;0.60;;;;;;;;;;5072622;28;20210;-69
2024/04/02 14:26:05;;;;;;;0.40;0.40;;;;;;;;;;5072921;28;20598;-70
2024/04/02 14:28:32;;;;;;;0.90;0.73;;;;;;;;;;5072904;28;20684;-69
2024/04/02 14:31:08;;;;;;;0.40;0.40;;;;;;;;;;5072923;28;20176;-70
2024/04/02 14:33:34;;;;;;;0.70;0.40;;;;;;;;;;5072626;28;20191;-68
2024/04/02 14:36:01;;;;;;;0.50;0.50;;;;;;;;;;5072804;28;20640;-68
2024/04/02 14:38:27;;;;;;;0.50;0.50;;;;;;;;;;5073203;28;20179;-68
2024/04/02 14:41:00;;;;;;;0.50;0.43;;;;;;;;;;5072958;28;20643;-68
2024/04/02 14:43:26;;;;;;;1.38;0.40;;;;;;;;;;5072945;28;20196;-68
2024/04/02 14:45:52;;;;;;;0.35;0.30;;;;;;;;;;5072782;28;20180;-68
2024/04/02 14:48:19;;;;;;;0.75;0.60;;;;;;;;;;5072564;28;20695;-68
2024/04/02 14:50:45;;;;;;;0.77;0.60;;;;;;;;;;5072567;28;20182;-68
2024/04/02 14:55:52;;;;;;;0.90;0.60;;;;;;;;;;5052612;28;20214;-78
2024/04/02 14:58:18;;;;;;;0.55;0.47;;;;;;;;;;5056183;28;20660;-78